Time;durP1;ratioP1;P1;durP2;ratioP2;P2;SDS_P1;SDS_P2;PMS_P1;PMS_P2;Temp;Humidity;BMP_temperature;BMP_pressure;BME280_temperature;BME280_humidity;BME280_pressure;Samples;Min_cycle;Max_cycle;Signal;HPM_P1;HPM_P2
2022/11/15 00:01:39;;;;;;;241.33;78.67;;;4.90;99.90;;;;;;4997057;28;20687;-53
2022/11/15 00:04:05;;;;;;;306.70;94.73;;;4.90;99.90;;;;;;4992184;28;20243;-52
2022/11/15 00:06:32;;;;;;;386.20;108.47;;;;;;;;;;4961305;28;20211;-53
2022/11/15 00:09:01;;;;;;;229.53;65.80;;;4.80;99.90;;;;;;4980206;28;20214;-53
2022/11/15 00:11:27;;;;;;;391.40;108.00;;;;;;;;;;4978035;28;20884;-53
2022/11/15 00:13:56;;;;;;;273.47;79.00;;;5.00;99.90;;;;;;4988888;28;20359;-53
2022/11/15 00:16:22;;;;;;;332.03;85.33;;;4.90;99.90;;;;;;4984090;28;20213;-53
2022/11/15 00:18:49;;;;;;;194.93;57.50;;;;;;;;;;4973198;28;20684;-53
2022/11/15 00:21:15;;;;;;;284.20;82.50;;;5.00;99.90;;;;;;4976305;28;20197;-53
2022/11/15 00:23:40;;;;;;;344.90;92.47;;;4.90;99.90;;;;;;4983087;28;20211;-53
2022/11/15 00:26:10;;;;;;;169.23;46.50;;;2.60;99.90;;;;;;4992512;28;20816;-53
2022/11/15 00:28:36;;;;;;;333.17;93.47;;;;;;;;;;4989238;28;20331;-54
2022/11/15 00:31:06;;;;;;;231.30;68.23;;;4.90;99.90;;;;;;4978376;28;20213;-52
2022/11/15 00:33:32;;;;;;;266.97;77.17;;;5.00;99.90;;;;;;4980225;28;20188;-53
2022/11/15 00:36:08;;;;;;;353.10;105.67;;;4.90;99.90;;;;;;4977153;28;20193;-52
2022/11/15 00:38:35;;;;;;;340.07;92.77;;;;;;;;;;4955497;28;20883;-52
2022/11/15 00:41:02;;;;;;;246.03;72.37;;;5.10;99.90;;;;;;4963425;28;21103;-52
2022/11/15 00:43:27;;;;;;;404.70;119.20;;;4.90;99.90;;;;;;4964933;28;20225;-53
2022/11/15 00:45:53;;;;;;;196.60;57.90;;;5.10;99.90;;;;;;4979712;28;20220;-52
2022/11/15 00:48:19;;;;;;;390.13;120.20;;;;;;;;;;4976736;28;20580;-52
2022/11/15 00:50:45;;;;;;;372.87;111.57;;;;;;;;;;4966273;28;20835;-53
2022/11/15 00:53:11;;;;;;;271.93;78.33;;;;;;;;;;4973789;28;21570;-52
2022/11/15 00:55:37;;;;;;;77.10;27.40;;;4.90;99.90;;;;;;4994703;28;20216;-52
2022/11/15 00:58:03;;;;;;;171.03;53.70;;;4.90;99.90;;;;;;4989392;28;20267;-53
2022/11/15 01:00:29;;;;;;;381.17;105.40;;;;;;;;;;4986939;28;21203;-53
2022/11/15 01:02:55;;;;;;;271.77;74.73;;;;;;;;;;4981196;28;20205;-53
2022/11/15 01:05:21;;;;;;;399.73;112.83;;;;;;;;;;4962576;28;20221;-53
2022/11/15 01:07:47;;;;;;;356.87;101.33;;;;;;;;;;4946298;28;20239;-53
2022/11/15 01:10:12;;;;;;;253.03;71.63;;;4.90;99.90;;;;;;4958689;28;20291;-53
2022/11/15 01:12:38;;;;;;;325.40;95.63;;;;;;;;;;4979429;28;20232;-53
2022/11/15 01:15:05;;;;;;;188.37;55.60;;;;;;;;;;4978822;28;20220;-52
2022/11/15 01:17:31;;;;;;;260.47;67.87;;;;;;;;;;4977677;28;20298;-54
2022/11/15 01:19:57;;;;;;;407.93;117.13;;;;;;;;;;4972613;28;20216;-54
2022/11/15 01:22:23;;;;;;;397.47;113.47;;;;;;;;;;4981734;28;20220;-53
2022/11/15 01:24:51;;;;;;;303.37;85.13;;;4.70;99.90;;;;;;4978276;28;20850;-53
2022/11/15 01:27:17;;;;;;;140.83;41.77;;;;;;;;;;4995678;28;20196;-54
2022/11/15 01:29:43;;;;;;;227.40;62.80;;;;;;;;;;4991961;28;20228;-53
2022/11/15 01:32:09;;;;;;;330.27;96.20;;;4.70;99.90;;;;;;4950020;28;20228;-54
2022/11/15 01:34:35;;;;;;;339.23;92.07;;;;;;;;;;4976482;28;20276;-53
2022/11/15 01:37:01;;;;;;;100.23;30.17;;;4.60;99.90;;;;;;4979340;28;20273;-54
2022/11/15 01:39:27;;;;;;;170.33;47.00;;;;;;;;;;4981285;28;20189;-53
2022/11/15 01:41:54;;;;;;;321.57;91.27;;;;;;;;;;4976971;28;20225;-52
2022/11/15 01:44:46;;;;;;;321.33;87.83;;;4.60;99.90;;;;;;4969397;28;20232;-53
2022/11/15 01:47:16;;;;;;;221.33;60.23;;;4.60;99.90;;;;;;4996005;28;20205;-53
2022/11/15 01:49:52;;;;;;;219.43;64.03;;;4.80;99.90;;;;;;4972152;28;21234;-53
2022/11/15 01:52:20;;;;;;;239.03;66.60;;;4.60;99.90;;;;;;4973072;28;20246;-53
2022/11/15 01:54:49;;;;;;;292.87;83.27;;;4.60;99.90;;;;;;4968634;28;20900;-53
2022/11/15 01:57:15;;;;;;;269.43;75.07;;;5.10;99.90;;;;;;4975311;28;20247;-54
2022/11/15 01:59:44;;;;;;;172.17;47.93;;;4.60;99.90;;;;;;4965297;28;20217;-53
2022/11/15 02:02:10;;;;;;;252.57;70.07;;;4.70;99.90;;;;;;4977657;28;20532;-53
2022/11/15 02:04:45;;;;;;;115.13;33.73;;;4.70;99.90;;;;;;4989081;28;20220;-54
2022/11/15 02:07:13;;;;;;;241.07;66.20;;;4.50;99.90;;;;;;4988574;28;20231;-53
2022/11/15 02:09:39;;;;;;;306.90;85.73;;;4.60;99.90;;;;;;4974398;28;20201;-53
2022/11/15 02:12:07;;;;;;;378.53;107.03;;;4.60;99.90;;;;;;4967856;28;20751;-53
2022/11/15 02:14:34;;;;;;;237.10;68.90;;;4.80;99.90;;;;;;4986459;28;20216;-53
2022/11/15 02:17:29;;;;;;;293.03;83.07;;;4.60;99.90;;;;;;4965033;28;20311;-53
2022/11/15 02:20:26;;;;;;;300.93;81.90;;;4.50;99.90;;;;;;4969986;28;20740;-54
2022/11/15 02:23:16;;;;;;;268.27;74.20;;;4.50;99.90;;;;;;4973503;28;20217;-53
2022/11/15 02:26:10;;;;;;;258.40;70.00;;;4.40;99.90;;;;;;4980618;28;20213;-53
2022/11/15 02:29:21;;;;;;;190.10;51.50;;;4.50;99.90;;;;;;4990599;28;20248;-52
2022/11/15 02:32:18;;;;;;;253.67;68.23;;;4.50;99.90;;;;;;4982500;28;20248;-52
2022/11/15 02:34:52;;;;;;;257.50;76.80;;;4.50;99.90;;;;;;4977077;28;20241;-52
2022/11/15 02:37:49;;;;;;;274.87;101.13;;;4.50;99.90;;;;;;4999590;28;20212;-52
2022/11/15 02:40:40;;;;;;;326.67;119.60;;;4.50;99.90;;;;;;4972024;28;20220;-52
2022/11/15 02:46:12;;;;;;;183.53;77.73;;;4.30;99.90;;;;;;4972690;28;20916;-53
2022/11/15 02:48:38;;;;;;;274.27;101.17;;;;;;;;;;4980009;28;20230;-53
2022/11/15 02:51:04;;;;;;;270.17;99.13;;;;;;;;;;4984732;28;20594;-52
2022/11/15 02:53:30;;;;;;;373.77;132.17;;;;;;;;;;4981014;28;20647;-53
2022/11/15 02:55:57;;;;;;;178.33;73.93;;;4.40;99.90;;;;;;4980686;28;20209;-53
2022/11/15 02:59:00;;;;;;;321.83;116.53;;;4.40;99.90;;;;;;4992201;28;20220;-52
2022/11/15 03:01:39;;;;;;;345.53;128.87;;;4.40;99.90;;;;;;4978833;28;20919;-53
2022/11/15 03:04:04;;;;;;;290.47;105.77;;;4.40;99.90;;;;;;4965969;28;20262;-53
2022/11/15 03:06:57;;;;;;;162.87;72.43;;;4.40;99.90;;;;;;4993815;28;20688;-53
2022/11/15 03:09:37;;;;;;;267.13;94.20;;;4.30;99.90;;;;;;4980903;28;20207;-53
2022/11/15 03:12:27;;;;;;;355.20;120.83;;;4.40;99.90;;;;;;4978394;28;20220;-53
2022/11/15 03:15:05;;;;;;;205.07;83.30;;;4.30;99.90;;;;;;4973534;28;20216;-53
2022/11/15 03:17:38;;;;;;;400.50;140.57;;;4.30;99.90;;;;;;4970013;28;20344;-53
2022/11/15 03:20:07;;;;;;;378.03;128.77;;;4.30;99.90;;;;;;4977688;28;20293;-53
2022/11/15 03:22:37;;;;;;;346.20;112.93;;;7.20;99.90;;;;;;4981057;28;20303;-53
2022/11/15 03:25:08;;;;;;;175.60;68.63;;;4.30;99.90;;;;;;4981286;28;20209;-53
2022/11/15 03:27:39;;;;;;;242.60;85.03;;;4.20;99.90;;;;;;4979595;28;20192;-53
2022/11/15 03:30:08;;;;;;;265.60;90.53;;;4.20;99.90;;;;;;4983185;28;20194;-52
2022/11/15 03:32:41;;;;;;;379.50;121.27;;;4.00;99.90;;;;;;4975492;28;20615;-53
2022/11/15 03:35:23;;;;;;;226.07;81.67;;;4.10;99.90;;;;;;4967999;28;20220;-53
2022/11/15 03:38:14;;;;;;;371.77;127.33;;;4.10;99.90;;;;;;4979421;28;20216;-53
2022/11/15 03:40:42;;;;;;;410.27;128.83;;;4.10;99.90;;;;;;4982838;28;20244;-53
2022/11/15 03:43:29;;;;;;;254.63;83.83;;;4.10;99.90;;;;;;4977361;28;20316;-53
2022/11/15 03:46:06;;;;;;;207.63;71.77;;;4.10;99.90;;;;;;4984885;28;20813;-53
2022/11/15 03:48:36;;;;;;;299.47;95.73;;;4.00;99.90;;;;;;4978179;28;21540;-53
2022/11/15 03:51:03;;;;;;;320.90;96.20;;;4.00;99.90;;;;;;4980651;28;20196;-53
2022/11/15 03:53:31;;;;;;;302.77;97.20;;;4.00;99.90;;;;;;4963171;28;20296;-52
2022/11/15 03:55:57;;;;;;;309.17;97.90;;;;;;;;;;4975403;28;20224;-52
2022/11/15 03:58:23;;;;;;;267.37;90.50;;;;;;;;;;4970326;28;20213;-53
2022/11/15 04:00:48;;;;;;;148.30;56.37;;;4.00;99.90;;;;;;4991555;28;20223;-53
2022/11/15 04:03:14;;;;;;;319.63;102.70;;;;;;;;;;4992042;28;20579;-53
2022/11/15 04:05:40;;;;;;;292.23;96.67;;;4.10;99.90;;;;;;4966696;28;20224;-53
2022/11/15 04:08:06;;;;;;;299.30;92.23;;;;;;;;;;4984766;28;20220;-53
2022/11/15 04:10:32;;;;;;;325.20;102.37;;;;;;;;;;4995487;28;20244;-52
2022/11/15 04:12:58;;;;;;;313.13;100.93;;;;;;;;;;4972228;28;20326;-53
2022/11/15 04:15:24;;;;;;;327.23;96.87;;;;;;;;;;4959454;28;20738;-53
2022/11/15 04:17:52;;;;;;;231.83;77.10;;;3.90;99.90;;;;;;4979358;28;20221;-54
2022/11/15 04:25:55;;;;;;;166.40;58.23;;;4.00;99.90;;;;;;4990841;28;20304;-54
2022/11/15 04:28:21;;;;;;;224.07;73.40;;;3.80;99.90;;;;;;4989057;28;20239;-53
2022/11/15 04:30:47;;;;;;;309.13;94.73;;;;;;;;;;4988593;28;20243;-53
2022/11/15 04:33:13;;;;;;;176.83;62.13;;;6.30;99.90;;;;;;4989177;28;20200;-53
2022/11/15 04:35:39;;;;;;;254.90;87.07;;;;;;;;;;4969842;28;20233;-54
2022/11/15 04:38:07;;;;;;;193.33;70.93;;;3.90;99.90;;;;;;4971311;28;20282;-54
2022/11/15 04:40:33;;;;;;;287.57;87.83;;;3.90;99.90;;;;;;4974437;28;20366;-54
2022/11/15 04:42:58;;;;;;;260.37;85.00;;;3.90;99.90;;;;;;4982302;28;20681;-53
2022/11/15 04:45:24;;;;;;;372.10;132.77;;;3.80;99.90;;;;;;4980931;28;20629;-53
2022/11/15 04:47:50;;;;;;;330.00;140.10;;;;;;;;;;4975989;28;20823;-53
2022/11/15 04:50:16;;;;;;;382.87;156.13;;;3.70;99.90;;;;;;4976944;28;21719;-53
2022/11/15 04:52:44;;;;;;;473.00;174.13;;;3.70;99.90;;;;;;4964080;28;20227;-54
2022/11/15 04:55:10;;;;;;;289.60;117.83;;;3.70;99.90;;;;;;4987316;28;20359;-53
2022/11/15 04:57:36;;;;;;;229.37;104.63;;;;;;;;;;4997473;28;20268;-53
2022/11/15 05:00:08;;;;;;;263.27;107.37;;;3.70;99.90;;;;;;4985765;28;20506;-52
2022/11/15 05:05:18;;;;;;;344.80;135.87;;;;;;;;;;4981738;28;20861;-53
2022/11/15 05:07:44;;;;;;;467.63;184.43;;;3.70;99.90;;;;;;4979209;28;20204;-54
2022/11/15 05:10:10;;;;;;;349.80;145.67;;;;;;;;;;4973687;28;20208;-53
2022/11/15 05:12:36;;;;;;;369.20;144.63;;;;;;;;;;4964986;28;20717;-53
2022/11/15 05:15:02;;;;;;;351.43;128.03;;;3.50;99.90;;;;;;4972342;28;20215;-54
2022/11/15 05:17:28;;;;;;;371.73;138.60;;;;;;;;;;4984637;28;20231;-53
2022/11/15 05:19:54;;;;;;;505.17;176.97;;;;;;;;;;4967529;28;20583;-53
2022/11/15 05:22:20;;;;;;;259.43;107.10;;;;;;;;;;4966875;28;20221;-54
2022/11/15 05:24:46;;;;;;;292.63;113.23;;;;;;;;;;4982343;28;20268;-53
2022/11/15 05:27:12;;;;;;;320.33;120.27;;;;;;;;;;4989127;28;20489;-53
2022/11/15 05:29:38;;;;;;;360.27;135.63;;;;;;;;;;4963298;28;21145;-53
2022/11/15 05:32:06;;;;;;;397.67;146.47;;;3.50;99.90;;;;;;4982836;28;20608;-53
2022/11/15 05:34:32;;;;;;;247.17;109.53;;;;;;;;;;4962757;28;20319;-53
2022/11/15 05:36:59;;;;;;;349.23;128.97;;;3.60;99.90;;;;;;4971338;28;20220;-54
2022/11/15 05:39:25;;;;;;;323.23;128.47;;;;;;;;;;4971630;28;20710;-54
2022/11/15 05:42:10;;;;;;;397.57;132.47;;;3.60;99.90;;;;;;4990288;28;20224;-53
2022/11/15 05:44:36;;;;;;;425.60;154.53;;;;;;;;;;4974554;28;20217;-53
2022/11/15 05:47:03;;;;;;;433.43;155.07;;;;;;;;;;4981475;28;20647;-54
2022/11/15 05:49:32;;;;;;;169.70;83.90;;;3.50;99.90;;;;;;4975013;28;20248;-53
2022/11/15 05:51:58;;;;;;;274.97;105.40;;;3.60;99.90;;;;;;4991778;28;20589;-53
2022/11/15 05:54:24;;;;;;;270.83;107.07;;;3.60;99.90;;;;;;4998629;28;20189;-54
2022/11/15 05:56:50;;;;;;;381.10;127.23;;;3.60;99.90;;;;;;4998172;28;20220;-53
2022/11/15 05:59:16;;;;;;;271.27;117.70;;;3.60;99.90;;;;;;4969349;28;20219;-53
2022/11/15 06:01:42;;;;;;;444.93;159.00;;;3.60;99.90;;;;;;4977642;28;20613;-53
2022/11/15 06:04:08;;;;;;;283.97;113.27;;;;;;;;;;4998334;28;20213;-54
2022/11/15 06:06:34;;;;;;;157.07;80.23;;;;;;;;;;4984577;28;20216;-54
2022/11/15 06:09:00;;;;;;;329.00;123.03;;;;;;;;;;4985927;28;20894;-54
2022/11/15 06:11:26;;;;;;;404.50;155.77;;;;;;;;;;4965086;28;20664;-53
2022/11/15 06:13:52;;;;;;;379.40;145.60;;;;;;;;;;4950342;28;20215;-53
2022/11/15 06:16:18;;;;;;;307.50;127.03;;;;;;;;;;4965329;28;20688;-54
2022/11/15 06:18:44;;;;;;;339.70;133.17;;;;;;;;;;4969945;28;20184;-54
2022/11/15 06:21:10;;;;;;;349.30;132.97;;;;;;;;;;4978242;28;20176;-54
2022/11/15 06:23:36;;;;;;;491.53;177.07;;;;;;;;;;4966909;28;20220;-53
2022/11/15 06:26:02;;;;;;;381.90;142.63;;;3.60;99.90;;;;;;4947559;28;20263;-53
2022/11/15 06:28:30;;;;;;;431.63;155.43;;;3.60;99.90;;;;;;4980875;28;20276;-54
2022/11/15 06:30:56;;;;;;;198.90;95.43;;;;;;;;;;4958214;28;20605;-54
2022/11/15 06:33:22;;;;;;;177.33;92.43;;;3.50;99.90;;;;;;4983508;28;20181;-54
2022/11/15 06:35:48;;;;;;;342.63;130.67;;;;;;;;;;4986232;28;20885;-54
2022/11/15 06:38:14;;;;;;;405.60;156.20;;;;;;;;;;4968251;28;20696;-53
2022/11/15 06:40:40;;;;;;;523.67;191.00;;;;;;;;;;4977760;28;20275;-53
2022/11/15 06:43:06;;;;;;;381.83;143.13;;;3.60;99.90;;;;;;4984715;28;20231;-53
2022/11/15 06:45:32;;;;;;;294.80;116.63;;;;;;;;;;4982390;28;20660;-53
2022/11/15 06:47:58;;;;;;;204.47;93.30;;;;;;;;;;4980488;28;20232;-53
2022/11/15 06:50:24;;;;;;;408.13;159.70;;;;;;;;;;4970006;28;20242;-54
2022/11/15 06:52:50;;;;;;;401.87;160.37;;;;;;;;;;4984312;28;20217;-53
2022/11/15 06:55:16;;;;;;;309.30;129.60;;;;;;;;;;4955349;28;20243;-51
2022/11/15 06:57:49;;;;;;;367.90;137.70;;;3.70;99.90;;;;;;4989876;28;20188;-52
2022/11/15 07:00:16;;;;;;;294.43;115.47;;;3.70;99.90;;;;;;4991212;28;20283;-51
2022/11/15 07:02:42;;;;;;;331.27;130.17;;;;;;;;;;4980705;28;20225;-51
2022/11/15 07:05:08;;;;;;;332.37;134.83;;;;;;;;;;4969512;28;20247;-51
2022/11/15 07:07:34;;;;;;;301.80;118.67;;;;;;;;;;4957093;28;20315;-51
2022/11/15 07:10:00;;;;;;;342.97;133.03;;;3.90;99.90;;;;;;4983390;28;20224;-51
2022/11/15 07:12:26;;;;;;;317.00;128.43;;;;;;;;;;4975887;28;20337;-53
2022/11/15 07:14:52;;;;;;;296.93;128.53;;;;;;;;;;4973504;28;20654;-53
2022/11/15 07:17:17;;;;;;;404.67;159.57;;;4.00;99.90;;;;;;4973521;28;20217;-53
2022/11/15 07:19:43;;;;;;;372.03;143.40;;;;;;;;;;4966492;28;20634;-53
2022/11/15 07:22:09;;;;;;;333.27;139.57;;;;;;;;;;4995835;28;20343;-52
2022/11/15 07:24:34;;;;;;;361.93;137.07;;;4.50;99.90;;;;;;4989249;28;20460;-53
2022/11/15 07:27:00;;;;;;;310.73;132.33;;;4.60;99.90;;;;;;4970728;28;20303;-53
2022/11/15 07:29:26;;;;;;;295.97;125.50;;;;;;;;;;4986677;28;20410;-53
2022/11/15 07:31:52;;;;;;;212.03;105.10;;;;;;;;;;4950615;28;20853;-53
2022/11/15 07:34:18;;;;;;;317.50;130.23;;;;;;;;;;4981367;28;20255;-53
2022/11/15 07:36:44;;;;;;;370.07;148.47;;;;;;;;;;4977070;28;20213;-52
2022/11/15 07:39:11;;;;;;;194.20;97.77;;;4.40;99.90;;;;;;4998808;28;20572;-52
2022/11/15 07:41:38;;;;;;;247.43;110.13;;;;;;;;;;4974143;28;20783;-54
2022/11/15 07:44:04;;;;;;;443.20;184.47;;;;;;;;;;4960247;28;20408;-52
2022/11/15 07:46:30;;;;;;;338.27;136.50;;;2.10;99.90;;;;;;4978250;28;20224;-53
2022/11/15 07:48:56;;;;;;;326.53;137.50;;;;;;;;;;4980489;28;20263;-52
2022/11/15 07:51:22;;;;;;;316.20;134.27;;;4.60;99.90;;;;;;4988321;28;20266;-53
2022/11/15 07:53:48;;;;;;;324.47;131.40;;;;;;;;;;4982381;28;20181;-53
2022/11/15 07:56:13;;;;;;;163.77;88.80;;;4.70;99.90;;;;;;4973820;28;20242;-53
2022/11/15 07:58:39;;;;;;;460.50;185.00;;;;;;;;;;4977909;28;20366;-54
2022/11/15 08:01:07;;;;;;;212.63;98.00;;;4.70;99.90;;;;;;4997818;28;20593;-53
2022/11/15 08:03:33;;;;;;;249.07;110.43;;;;;;;;;;4992515;28;20259;-53
2022/11/15 08:05:59;;;;;;;407.60;164.87;;;4.90;99.90;;;;;;4985388;28;20173;-53
2022/11/15 08:08:24;;;;;;;361.00;148.10;;;4.80;99.90;;;;;;4989949;28;20274;-53
2022/11/15 08:10:50;;;;;;;254.90;112.03;;;5.00;99.90;;;;;;4991148;28;20640;-53
2022/11/15 08:13:16;;;;;;;218.90;105.93;;;4.90;99.90;;;;;;4991457;28;20806;-53
2022/11/15 08:15:43;;;;;;;380.03;149.77;;;;;;;;;;4994443;28;20237;-53
2022/11/15 08:18:14;;;;;;;251.43;112.70;;;5.00;99.90;;;;;;4981347;28;20185;-54
2022/11/15 08:20:40;;;;;;;393.30;163.30;;;5.10;99.90;;;;;;5002012;28;20217;-52
2022/11/15 08:23:07;;;;;;;179.67;96.50;;;;;;;;;;5001817;28;20212;-53
2022/11/15 08:25:34;;;;;;;357.93;157.20;;;5.20;99.90;;;;;;4997566;28;20216;-53
2022/11/15 08:28:03;;;;;;;261.80;122.03;;;5.30;99.90;;;;;;4999815;28;20212;-53
2022/11/15 08:30:29;;;;;;;494.53;196.80;;;;;;;;;;4997691;28;20184;-53
2022/11/15 08:32:57;;;;;;;321.07;133.70;;;5.70;99.90;;;;;;4992112;28;20297;-53
2022/11/15 08:35:23;;;;;;;266.73;119.30;;;;;;;;;;4994611;28;20325;-53
2022/11/15 08:37:49;;;;;;;290.83;129.17;;;;;;;;;;4999338;28;20311;-52
2022/11/15 08:40:15;;;;;;;198.43;104.00;;;4.30;99.90;;;;;;4993996;28;20215;-53
2022/11/15 08:42:41;;;;;;;326.03;137.23;;;;;;;;;;4999187;28;20717;-53
2022/11/15 08:45:08;;;;;;;273.53;127.43;;;5.80;99.90;;;;;;5000674;28;20545;-53
2022/11/15 08:47:34;;;;;;;305.73;132.93;;;;;;;;;;4997445;28;20231;-53
2022/11/15 08:50:00;;;;;;;288.50;129.03;;;;;;;;;;5003742;28;20224;-53
2022/11/15 08:52:26;;;;;;;295.57;128.60;;;;;;;;;;4996450;28;20241;-53
2022/11/15 08:54:52;;;;;;;523.97;210.63;;;;;;;;;;4965061;28;20720;-54
2022/11/15 08:57:18;;;;;;;459.10;188.63;;;;;;;;;;4976033;28;20193;-52
2022/11/15 08:59:44;;;;;;;379.30;161.53;;;;;;;;;;4973033;28;21652;-53
2022/11/15 09:02:13;;;;;;;409.43;174.57;;;6.30;99.90;;;;;;4978306;28;20225;-52
2022/11/15 09:04:42;;;;;;;464.07;194.03;;;;;;;;;;4979242;28;20655;-54
2022/11/15 09:07:09;;;;;;;251.20;120.00;;;;;;;;;;4977754;28;20350;-54
2022/11/15 09:09:35;;;;;;;282.90;127.13;;;;;;;;;;4977118;28;20225;-53
2022/11/15 09:12:01;;;;;;;394.87;160.43;;;;;;;;;;4984999;28;20707;-54
2022/11/15 09:14:27;;;;;;;258.87;123.40;;;;;;;;;;4978309;28;20235;-54
2022/11/15 09:16:53;;;;;;;467.13;188.03;;;;;;;;;;4980733;28;20221;-52
2022/11/15 09:19:19;;;;;;;275.03;127.90;;;;;;;;;;4980975;28;20221;-53
2022/11/15 09:21:45;;;;;;;260.23;118.00;;;;;;;;;;4981895;28;20220;-54
2022/11/15 09:24:11;;;;;;;241.47;117.23;;;;;;;;;;4989212;28;20207;-53
2022/11/15 09:26:37;;;;;;;364.87;148.97;;;;;;;;;;4992727;28;20242;-53
2022/11/15 09:29:03;;;;;;;314.57;136.40;;;;;;;;;;4990032;28;20275;-54
2022/11/15 09:31:29;;;;;;;228.97;114.70;;;;;;;;;;4990126;28;20320;-54
2022/11/15 09:33:55;;;;;;;317.93;140.37;;;;;;;;;;4986307;28;20212;-54
2022/11/15 09:36:21;;;;;;;241.77;115.77;;;;;;;;;;4990777;28;20649;-53
2022/11/15 09:38:47;;;;;;;230.07;115.00;;;;;;;;;;4991684;28;20189;-54
2022/11/15 09:41:13;;;;;;;225.67;116.57;;;;;;;;;;4983272;28;20760;-53
2022/11/15 09:43:44;;;;;;;319.30;138.80;;;;;;;;;;4995887;28;20323;-54
2022/11/15 09:46:16;;;;;;;218.90;110.13;;;;;;;;;;4995092;28;20267;-54
2022/11/15 09:48:58;;;;;;;314.10;141.73;;;;;;;;;;4992967;28;20250;-53
2022/11/15 09:51:24;;;;;;;354.63;152.97;;;;;;;;;;4974827;28;23510;-54
2022/11/15 09:54:11;;;;;;;315.80;147.50;;;;;;;;;;4971853;28;20696;-53
2022/11/15 09:56:40;;;;;;;366.10;151.43;;;;;;;;;;4957597;28;20803;-54
2022/11/15 09:59:06;;;;;;;340.30;150.60;;;;;;;;;;4968893;28;20209;-53
2022/11/15 10:01:50;;;;;;;247.70;124.57;;;;;;;;;;4985604;28;20593;-53
2022/11/15 10:04:16;;;;;;;443.03;185.50;;;;;;;;;;4975954;28;20251;-53
2022/11/15 10:06:55;;;;;;;272.53;127.17;;;;;;;;;;4982880;28;20212;-53
2022/11/15 10:09:24;;;;;;;377.97;156.23;;;;;;;;;;4974761;28;20208;-54
2022/11/15 10:11:50;;;;;;;379.87;173.57;;;;;;;;;;4968064;28;20213;-54
2022/11/15 10:14:21;;;;;;;222.80;115.60;;;;;;;;;;4981496;28;20223;-53
2022/11/15 10:17:00;;;;;;;385.03;169.13;;;;;;;;;;4970077;28;20989;-53
2022/11/15 10:19:32;;;;;;;334.83;151.97;;;;;;;;;;4980824;28;20216;-54
2022/11/15 10:22:21;;;;;;;292.87;139.77;;;;;;;;;;4990232;28;20224;-53
2022/11/15 10:24:47;;;;;;;299.63;141.70;;;;;;;;;;4978384;28;20305;-53
2022/11/15 10:27:17;;;;;;;342.50;157.80;;;;;;;;;;4975317;28;20856;-54
2022/11/15 10:29:44;;;;;;;319.13;148.57;;;;;;;;;;4977814;28;20554;-53
2022/11/15 10:32:11;;;;;;;353.43;159.23;;;;;;;;;;4978517;28;20578;-54
2022/11/15 10:34:37;;;;;;;369.17;167.93;;;;;;;;;;4986909;28;20460;-53
2022/11/15 10:37:03;;;;;;;343.13;155.50;;;;;;;;;;4985908;28;20513;-53
2022/11/15 10:39:29;;;;;;;383.83;166.43;;;;;;;;;;4968924;28;20728;-54
2022/11/15 10:41:55;;;;;;;323.50;148.20;;;;;;;;;;4988339;28;20607;-53
2022/11/15 10:44:26;;;;;;;466.63;191.70;;;;;;;;;;4962882;28;20825;-53
2022/11/15 10:46:54;;;;;;;319.93;144.40;;;;;;;;;;4993597;28;20660;-54
2022/11/15 10:49:30;;;;;;;432.77;176.37;;;;;;;;;;4990731;28;20232;-54
2022/11/15 10:52:01;;;;;;;338.40;153.70;;;;;;;;;;4951553;28;20691;-53
2022/11/15 10:54:41;;;;;;;353.57;162.50;;;;;;;;;;4973772;28;20189;-53
2022/11/15 10:57:18;;;;;;;378.67;159.83;;;;;;;;;;5000175;28;20256;-53
2022/11/15 10:59:51;;;;;;;385.60;165.30;;;;;;;;;;4982584;28;20247;-54
2022/11/15 11:02:29;;;;;;;356.27;166.43;;;;;;;;;;4963660;28;20883;-54
2022/11/15 11:04:56;;;;;;;518.93;205.77;;;;;;;;;;4970593;28;22044;-54
2022/11/15 11:07:26;;;;;;;413.20;170.60;;;;;;;;;;4972184;28;20205;-54
2022/11/15 11:10:24;;;;;;;427.43;174.40;;;;;;;;;;4958672;28;20231;-54
2022/11/15 11:12:50;;;;;;;504.07;227.23;;;;;;;;;;4935525;28;20304;-54
2022/11/15 11:15:18;;;;;;;481.17;198.57;;;;;;;;;;4964601;28;20189;-54
2022/11/15 11:17:53;;;;;;;291.33;133.83;;;;;;;;;;4999023;28;20272;-54
2022/11/15 11:20:19;;;;;;;429.57;179.80;;;;;;;;;;4990114;28;20753;-53
2022/11/15 11:23:01;;;;;;;424.80;173.03;;;;;;;;;;4982167;28;20221;-54
2022/11/15 11:25:30;;;;;;;402.20;171.73;;;;;;;;;;4982041;28;20220;-54
2022/11/15 11:28:15;;;;;;;445.17;187.70;;;;;;;;;;4983857;28;20266;-53
2022/11/15 11:30:59;;;;;;;426.97;175.27;;;;;;;;;;4977902;28;20213;-54
2022/11/15 11:33:30;;;;;;;418.63;181.17;;;;;;;;;;4976890;28;20181;-54
2022/11/15 11:35:56;;;;;;;502.07;199.67;;;;;;;;;;4978914;28;20188;-55
2022/11/15 11:38:39;;;;;;;554.33;233.13;;;;;;;;;;4969006;28;20223;-53
2022/11/15 11:41:27;;;;;;;501.43;206.20;;;;;;;;;;4973694;28;20688;-54
2022/11/15 11:44:10;;;;;;;489.67;217.03;;;;;;;;;;4975622;28;20216;-54
2022/11/15 11:46:39;;;;;;;545.70;247.97;;;;;;;;;;4973917;28;20212;-54
2022/11/15 11:49:16;;;;;;;555.40;252.00;;;;;;;;;;4971823;28;20232;-53
2022/11/15 11:51:44;;;;;;;512.33;211.97;;;;;;;;;;4993214;28;20224;-54
2022/11/15 11:54:15;;;;;;;704.37;297.20;;;;;;;;;;4965495;28;20189;-54
2022/11/15 11:56:42;;;;;;;486.10;205.20;;;;;;;;;;4971705;28;20363;-54
2022/11/15 11:59:28;;;;;;;699.57;290.10;;;;;;;;;;4970361;28;20223;-54
2022/11/15 12:01:55;;;;;;;479.80;210.83;;;;;;;;;;4961206;28;20217;-55
2022/11/15 12:04:21;;;;;;;475.33;212.83;;;;;;;;;;4978921;28;20671;-53
2022/11/15 12:06:53;;;;;;;485.17;214.40;;;;;;;;;;4981872;28;20295;-55
2022/11/15 12:09:25;;;;;;;471.60;211.87;;;;;;;;;;4986887;28;20205;-54
2022/11/15 12:11:50;;;;;;;481.07;214.90;;;;;;;;;;4973725;28;20643;-53
2022/11/15 12:14:36;;;;;;;469.17;204.43;;;;;;;;;;4979108;28;20217;-54
2022/11/15 12:17:02;;;;;;;416.37;189.77;;;;;;;;;;4979514;28;20216;-53
2022/11/15 12:19:29;;;;;;;465.27;210.10;;;;;;;;;;4983374;28;20212;-53
2022/11/15 12:21:55;;;;;;;405.10;179.37;;;;;;;;;;4964361;28;20221;-53
2022/11/15 12:24:27;;;;;;;462.63;210.23;;;;;;;;;;4975726;28;20186;-53
2022/11/15 12:26:57;;;;;;;509.47;225.60;;;;;;;;;;4976314;28;20281;-55
2022/11/15 12:29:26;;;;;;;506.97;221.97;;;;;;;;;;4961735;28;20287;-53
2022/11/15 12:31:56;;;;;;;512.83;225.93;;;;;;;;;;4972160;28;20220;-53
2022/11/15 12:34:22;;;;;;;546.40;245.37;;;;;;;;;;4975877;28;21397;-54
2022/11/15 12:36:49;;;;;;;536.20;243.03;;;;;;;;;;4986732;28;20213;-54
2022/11/15 12:39:16;;;;;;;433.10;197.93;;;;;;;;;;4982517;28;20200;-54
2022/11/15 12:41:43;;;;;;;504.80;234.33;;;;;;;;;;4976105;28;20227;-53
2022/11/15 12:44:13;;;;;;;413.83;195.60;;;;;;;;;;4978120;28;20210;-54
2022/11/15 12:46:39;;;;;;;527.00;245.57;;;;;;;;;;4978640;28;20236;-54
2022/11/15 12:49:11;;;;;;;498.10;238.27;;;;;;;;;;4972062;28;20263;-54
2022/11/15 12:51:43;;;;;;;539.13;260.43;;;;;;;;;;4980375;28;20271;-55
2022/11/15 12:54:22;;;;;;;440.47;214.13;;;;;;;;;;4965286;28;20770;-55
2022/11/15 12:57:03;;;;;;;545.97;278.13;;;;;;;;;;4984395;28;20752;-56
2022/11/15 12:59:48;;;;;;;441.02;229.45;;;;;;;;;;4980445;28;21101;-55
2022/11/15 13:02:25;;;;;;;439.30;231.15;;;;;;;;;;4966779;28;20225;-55
2022/11/15 13:04:52;;;;;;;482.10;259.13;;;;;;;;;;4987363;28;20763;-54
2022/11/15 13:07:37;;;;;;;502.17;274.55;;;;;;;;;;4977718;28;20221;-54
2022/11/15 13:10:12;;;;;;;507.05;282.15;;;;;;;;;;4971876;28;20417;-55
2022/11/15 13:12:44;;;;;;;364.35;256.85;;;;;;;;;;4971611;28;20838;-55
2022/11/15 13:15:13;;;;;;;352.85;256.33;;;;;;;;;;4975268;28;20250;-55
2022/11/15 13:17:43;;;;;;;437.35;297.08;;;;;;;;;;4970869;28;20279;-55
2022/11/15 13:20:14;;;;;;;400.23;283.40;;;;;;;;;;4976556;28;20701;-55
2022/11/15 13:22:51;;;;;;;438.15;297.48;;;;;;;;;;4970422;28;21216;-54
2022/11/15 13:25:39;;;;;;;486.55;313.10;;;;;;;;;;4970914;28;20204;-54
2022/11/15 13:28:14;;;;;;;337.58;247.40;;;;;;;;;;4975644;28;20221;-55
2022/11/15 13:30:41;;;;;;;426.20;276.17;;;;;;;;;;4963384;28;20216;-54
2022/11/15 13:33:09;;;;;;;432.80;276.17;;;;;;;;;;4966896;28;20648;-55
2022/11/15 13:35:37;;;;;;;363.80;239.63;;;;;;;;;;4976011;28;20201;-55
2022/11/15 13:38:04;;;;;;;351.88;228.45;;;;;;;;;;4980460;28;20661;-55
2022/11/15 13:40:39;;;;;;;356.25;236.85;;;;;;;;;;4982814;28;20292;-55
2022/11/15 13:43:18;;;;;;;323.30;206.65;;;;;;;;;;4980972;28;20294;-54